createdAt,value
2023-03-17T00:04:52.564Z,55.32
2023-03-17T00:09:56.104Z,55.44
2023-03-17T00:15:05.255Z,55.57
2023-03-17T00:20:21.052Z,55.71
2023-03-17T00:25:28.520Z,55.69
2023-03-17T00:30:32.145Z,55.91
2023-03-17T00:35:35.654Z,55.78
2023-03-17T00:40:38.954Z,55.74
2023-03-17T00:45:42.898Z,56.07
2023-03-17T00:50:48.250Z,55.89
2023-03-17T00:55:52.489Z,56.12
2023-03-17T01:00:56.827Z,56.11
2023-03-17T01:06:02.115Z,56.26
2023-03-17T01:11:06.964Z,56.00
2023-03-17T01:16:11.508Z,56.49
2023-03-17T01:21:15.524Z,56.50
2023-03-17T01:26:19.404Z,56.70
2023-03-17T01:31:23.780Z,56.61
2023-03-17T01:36:27.075Z,56.32
2023-03-17T01:41:34.729Z,56.55
2023-03-17T01:46:38.743Z,56.71
2023-03-17T01:51:53.662Z,56.77
2023-03-17T01:57:23.548Z,56.69
2023-03-17T02:02:31.044Z,56.67
2023-03-17T02:07:34.554Z,56.75
2023-03-17T02:12:37.729Z,56.82
2023-03-17T02:17:40.967Z,56.84
2023-03-17T02:22:50.448Z,56.85
2023-03-17T02:28:00.452Z,57.13
2023-03-17T02:33:03.918Z,57.16
2023-03-17T02:38:07.277Z,57.12
2023-03-17T02:43:10.798Z,57.32
2023-03-17T02:48:14.894Z,57.35
2023-03-17T02:53:18.243Z,57.64
2023-03-17T02:58:21.586Z,57.78
2023-03-17T03:03:24.877Z,57.76
2023-03-17T03:08:28.274Z,57.69
2023-03-17T03:13:31.800Z,57.81
2023-03-17T03:18:36.134Z,58.20
2023-03-17T03:23:39.630Z,58.26
2023-03-17T03:28:42.743Z,58.33
2023-03-17T03:33:46.695Z,58.01
2023-03-17T03:38:50.007Z,58.21
2023-03-17T03:43:53.411Z,58.21
2023-03-17T03:48:56.697Z,58.15
2023-03-17T03:54:01.467Z,58.04
2023-03-17T03:59:05.115Z,60.16
2023-03-17T04:04:08.567Z,58.99
2023-03-17T04:09:13.195Z,58.74
2023-03-17T04:14:16.748Z,58.49
2023-03-17T04:19:21.844Z,58.52
2023-03-17T04:24:25.480Z,58.43
2023-03-17T04:29:29.023Z,58.42
2023-03-17T04:34:32.809Z,58.71
2023-03-17T04:39:37.214Z,58.55
2023-03-17T04:44:41.383Z,58.61
2023-03-17T04:49:44.932Z,58.73
2023-03-17T04:54:48.341Z,58.78
2023-03-17T04:59:52.028Z,58.80
2023-03-17T05:04:55.285Z,58.77
2023-03-17T05:09:58.532Z,59.07
2023-03-17T05:15:04.061Z,58.96
2023-03-17T05:20:11.015Z,58.97
2023-03-17T05:25:14.659Z,58.90
2023-03-17T05:30:18.725Z,58.71
2023-03-17T05:35:25.987Z,58.71
2023-03-17T05:40:29.435Z,58.80
2023-03-17T05:45:33.525Z,58.83
2023-03-17T05:50:37.525Z,58.82
2023-03-17T05:55:42.631Z,58.85
2023-03-17T06:00:49.428Z,58.88
2023-03-17T06:05:53.361Z,58.93
2023-03-17T06:10:57.092Z,58.82
2023-03-17T06:16:00.534Z,58.82
2023-03-17T06:21:04.478Z,58.80
2023-03-17T06:26:07.954Z,58.89
2023-03-17T06:31:11.749Z,58.88
2023-03-17T06:36:15.559Z,58.92
2023-03-17T06:41:19.541Z,58.83
2023-03-17T06:46:22.993Z,58.77
2023-03-17T06:51:26.358Z,58.58
2023-03-17T06:56:30.815Z,58.32
2023-03-17T07:01:34.505Z,58.03
2023-03-17T07:06:38.120Z,57.94
2023-03-17T07:11:41.579Z,57.66
2023-03-17T07:16:45.506Z,57.00
2023-03-17T07:21:48.839Z,56.79
2023-03-17T07:26:52.828Z,56.39
2023-03-17T07:31:56.224Z,55.63
2023-03-17T07:36:59.816Z,55.23
2023-03-17T07:42:03.337Z,55.16
2023-03-17T07:47:06.678Z,54.97
2023-03-17T07:52:11.521Z,53.92
2023-03-17T07:57:16.969Z,53.66
2023-03-17T08:02:21.323Z,52.38
2023-03-17T08:07:24.702Z,51.64
2023-03-17T08:12:28.424Z,51.64
2023-03-17T08:17:32.050Z,50.18
2023-03-17T08:22:35.782Z,50.07
2023-03-17T08:27:39.407Z,49.58
2023-03-17T08:32:43.865Z,48.59
2023-03-17T08:37:48.008Z,47.93
2023-03-17T08:42:51.462Z,47.57
2023-03-17T08:47:55.669Z,47.31
2023-03-17T08:52:59.597Z,47.13
2023-03-17T08:58:05.704Z,46.22
2023-03-17T09:03:08.903Z,46.18
2023-03-17T09:08:13.308Z,45.85
2023-03-17T09:13:16.726Z,45.25
2023-03-17T09:18:22.092Z,45.71
2023-03-17T09:23:28.034Z,46.02
2023-03-17T09:28:31.263Z,44.66
2023-03-17T09:33:34.835Z,44.08
2023-03-17T09:38:38.796Z,43.41
2023-03-17T09:43:59.471Z,42.20
2023-03-17T09:49:22.982Z,40.81
2023-03-17T09:54:33.680Z,40.20
2023-03-17T09:59:45.282Z,41.01
2023-03-17T10:04:49.548Z,40.33
2023-03-17T10:09:58.310Z,38.49
2023-03-17T10:15:07.304Z,37.62
2023-03-17T10:20:13.303Z,37.45
2023-03-17T10:25:44.981Z,36.44
2023-03-17T10:30:48.417Z,34.56
2023-03-17T10:35:51.898Z,35.12
2023-03-17T10:41:06.028Z,33.97
2023-03-17T10:46:19.906Z,32.76
2023-03-17T10:51:35.904Z,34.10
2023-03-17T10:56:42.595Z,34.21
2023-03-17T11:02:00.234Z,33.46
2023-03-17T11:07:13.269Z,32.65
2023-03-17T11:12:39.581Z,33.31
2023-03-17T11:17:53.778Z,32.41
2023-03-17T11:23:18.240Z,32.84
2023-03-17T11:28:23.044Z,32.68
2023-03-17T11:33:46.600Z,31.23
2023-03-17T11:39:12.001Z,31.84
2023-03-17T11:44:27.315Z,32.80
2023-03-17T11:49:39.026Z,31.77
2023-03-17T11:54:52.958Z,30.90
2023-03-17T12:00:04.166Z,30.53
2023-03-17T12:05:23.308Z,30.58
2023-03-17T12:10:49.822Z,28.28
2023-03-17T12:16:00.494Z,28.02
2023-03-17T12:21:14.962Z,29.05
2023-03-17T12:26:21.868Z,29.09
2023-03-17T12:31:39.572Z,28.39
2023-03-17T12:36:44.324Z,28.61
2023-03-17T12:41:53.987Z,28.44
2023-03-17T12:47:06.455Z,29.34
2023-03-17T12:52:40.093Z,27.84
2023-03-17T12:57:58.057Z,28.10
2023-03-17T13:03:38.888Z,27.69
2023-03-17T13:08:43.412Z,27.81
2023-03-17T13:13:46.558Z,34.05
2023-03-17T13:18:50.614Z,36.45
2023-03-17T13:23:58.187Z,34.69
2023-03-17T13:29:22.826Z,31.90
2023-03-17T13:34:29.244Z,30.37
2023-03-17T13:39:50.506Z,28.01
2023-03-17T13:45:10.750Z,25.36
2023-03-17T13:50:21.783Z,25.80
2023-03-17T13:55:25.593Z,24.63
2023-03-17T14:00:33.366Z,25.07
2023-03-17T14:05:38.370Z,25.28
2023-03-17T14:10:44.376Z,25.92
2023-03-17T14:15:57.125Z,26.24
2023-03-17T14:21:08.901Z,26.82
2023-03-17T14:26:13.719Z,27.57
2023-03-17T14:31:28.323Z,26.78
2023-03-17T14:36:34.751Z,26.75
2023-03-17T14:41:38.519Z,26.75
2023-03-17T14:46:42.700Z,26.16
2023-03-17T14:51:51.174Z,26.44
2023-03-17T14:57:02.785Z,26.55
2023-03-17T15:02:22.587Z,26.26
2023-03-17T15:07:38.804Z,26.14
2023-03-17T15:12:43.190Z,26.57
2023-03-17T15:17:50.765Z,26.26
2023-03-17T15:23:00.271Z,25.61
2023-03-17T15:28:14.706Z,25.73
2023-03-17T15:33:34.939Z,26.40
2023-03-17T16:57:30.549Z,33.72
2023-03-17T17:02:47.404Z,33.52
2023-03-17T17:07:56.136Z,33.67
2023-03-17T17:20:24.529Z,33.65
2023-03-17T17:32:19.926Z,34.17
2023-03-17T17:37:23.596Z,33.89
2023-03-17T17:42:27.396Z,34.04
2023-03-17T17:47:33.141Z,34.17
2023-03-17T17:52:36.344Z,34.14
2023-03-17T17:57:39.889Z,34.00
2023-03-17T18:02:46.454Z,34.48
2023-03-17T18:07:50.315Z,34.65
2023-03-17T18:12:54.364Z,35.28
2023-03-17T18:17:57.877Z,35.14
2023-03-17T18:23:02.877Z,34.93
2023-03-17T18:28:06.599Z,35.11
2023-03-17T18:33:16.737Z,35.33
2023-03-17T18:38:20.690Z,35.31
2023-03-17T18:43:24.162Z,35.52
2023-03-17T18:48:27.347Z,35.65
2023-03-17T18:53:31.165Z,35.96
2023-03-17T18:58:36.384Z,35.95
2023-03-17T19:03:39.841Z,36.04
2023-03-17T19:08:43.690Z,36.22
2023-03-17T19:13:47.355Z,36.31
2023-03-17T19:18:51.889Z,36.47
2023-03-17T19:23:58.354Z,36.68
2023-03-17T19:29:02.074Z,36.90
2023-03-17T19:34:05.618Z,36.86
2023-03-17T19:39:11.423Z,36.99
2023-03-17T19:44:14.781Z,37.72
2023-03-17T19:49:20.071Z,37.50
2023-03-17T19:54:23.616Z,37.16
2023-03-17T19:59:27.071Z,37.27
2023-03-17T20:04:31.186Z,37.26
2023-03-17T20:09:38.317Z,37.53
2023-03-17T20:14:42.162Z,37.42
2023-03-17T20:19:45.843Z,37.61
2023-03-17T20:24:50.200Z,37.85
2023-03-17T20:29:54.100Z,37.86
2023-03-17T20:34:57.895Z,38.31
2023-03-17T20:40:03.236Z,38.37
2023-03-17T20:45:07.695Z,38.59
2023-03-17T20:50:13.204Z,38.66
2023-03-17T20:55:17.619Z,38.88
2023-03-17T21:00:22.246Z,39.14
2023-03-17T21:05:27.811Z,40.15
2023-03-17T21:10:31.810Z,39.92
2023-03-17T21:15:36.134Z,39.90
2023-03-17T21:20:39.999Z,40.00
2023-03-17T21:25:43.614Z,40.05
2023-03-17T21:30:47.389Z,40.31
2023-03-17T21:35:51.100Z,40.32
2023-03-17T21:40:55.973Z,40.38
2023-03-17T21:45:59.637Z,40.52
2023-03-17T21:51:03.160Z,40.82
2023-03-17T21:56:06.607Z,40.80
2023-03-17T22:01:11.781Z,41.05
2023-03-17T22:06:17.184Z,41.24
2023-03-17T22:11:20.484Z,41.42
2023-03-17T22:16:24.701Z,41.52
2023-03-17T22:21:29.953Z,41.79
2023-03-17T22:26:33.922Z,41.85
2023-03-17T22:31:37.460Z,42.07
2023-03-17T22:36:41.300Z,42.06
2023-03-17T22:41:44.780Z,42.28
2023-03-17T22:46:47.964Z,42.40
2023-03-17T22:51:51.310Z,42.45
2023-03-17T22:56:54.675Z,42.47
2023-03-17T23:01:58.924Z,42.51
2023-03-17T23:07:03.421Z,42.54
2023-03-17T23:12:08.142Z,42.55
2023-03-17T23:17:11.393Z,42.63
2023-03-17T23:22:14.592Z,42.79
2023-03-17T23:27:17.904Z,42.90
2023-03-17T23:32:21.258Z,42.95
2023-03-17T23:37:24.923Z,43.05
2023-03-17T23:42:32.931Z,43.10
2023-03-17T23:47:38.749Z,43.07
2023-03-17T23:52:42.635Z,43.22
2023-03-17T23:57:45.839Z,43.32
